<?xml version="1.0" encoding="utf-8"?>
<gpx xmlns:xsd="http://www.w3.org/2001/XMLSchema" xmlns:xsi="http://www.w3.org/2001/XMLSchema-instance" creator="eT4 META" version="1.1" xsi:schemaLocation="http://www.topografix.com/GPX/1/1 http://www.topografix.com/GPX/1/1/gpx.xsd" xmlns="http://www.topografix.com/GPX/1/1">
  <trk>
    <name>Nordelm-Route</name>
    <trkseg>
      <trkpt lat="52.1396" lon="10.96504">
        <ele>139.62</ele>
        <time>2026-09-03T00:00:00.0000000+00:00</time>
      </trkpt>
      <trkpt lat="52.13942" lon="10.96499">
        <ele>139.61</ele>
        <time>2026-09-03T00:00:08.9340000+00:00</time>
      </trkpt>
      <trkpt lat="52.1394" lon="10.96499">
        <ele>139.59</ele>
        <time>2026-09-03T00:00:09.9130000+00:00</time>
      </trkpt>
      <trkpt lat="52.13959" lon="10.96246">
        <ele>150.67</ele>
        <time>2026-09-03T00:01:26.4510000+00:00</time>
      </trkpt>
      <trkpt lat="52.13922" lon="10.96214">
        <ele>151.66</ele>
        <time>2026-09-03T00:01:46.9460000+00:00</time>
      </trkpt>
      <trkpt lat="52.13912" lon="10.96181">
        <ele>153.43</ele>
        <time>2026-09-03T00:01:57.9970000+00:00</time>
      </trkpt>
      <trkpt lat="52.13884" lon="10.96167">
        <ele>154.61</ele>
        <time>2026-09-03T00:02:12.3270000+00:00</time>
      </trkpt>
      <trkpt lat="52.13884" lon="10.96097">
        <ele>157.13</ele>
        <time>2026-09-03T00:02:33.3470000+00:00</time>
      </trkpt>
      <trkpt lat="52.13907" lon="10.95959">
        <ele>164.07</ele>
        <time>2026-09-03T00:03:16.2870000+00:00</time>
      </trkpt>
      <trkpt lat="52.13851" lon="10.95928">
        <ele>166.21</ele>
        <time>2026-09-03T00:03:45.2240000+00:00</time>
      </trkpt>
      <trkpt lat="52.13823" lon="10.95888">
        <ele>167.39</ele>
        <time>2026-09-03T00:04:03.4440000+00:00</time>
      </trkpt>
      <trkpt lat="52.13824" lon="10.95724">
        <ele>171.09</ele>
        <time>2026-09-03T00:04:52.6940000+00:00</time>
      </trkpt>
      <trkpt lat="52.13826" lon="10.95714">
        <ele>171.47</ele>
        <time>2026-09-03T00:04:55.8520000+00:00</time>
      </trkpt>
      <trkpt lat="52.13811" lon="10.95691">
        <ele>171.99</ele>
        <time>2026-09-03T00:05:05.9300000+00:00</time>
      </trkpt>
      <trkpt lat="52.13787" lon="10.95572">
        <ele>176.4</ele>
        <time>2026-09-03T00:05:43.5440000+00:00</time>
      </trkpt>
      <trkpt lat="52.13687" lon="10.94713">
        <ele>195.02</ele>
        <time>2026-09-03T00:10:06.0980000+00:00</time>
      </trkpt>
      <trkpt lat="52.13696" lon="10.94698">
        <ele>195.81</ele>
        <time>2026-09-03T00:10:12.3970000+00:00</time>
      </trkpt>
      <trkpt lat="52.14049" lon="10.94106">
        <ele>225.45</ele>
        <time>2026-09-03T00:14:20.2500000+00:00</time>
      </trkpt>
      <trkpt lat="52.14128" lon="10.93413">
        <ele>243.5</ele>
        <time>2026-09-03T00:17:51.8980000+00:00</time>
      </trkpt>
      <trkpt lat="52.14136" lon="10.93155">
        <ele>253.55</ele>
        <time>2026-09-03T00:19:09.4660000+00:00</time>
      </trkpt>
      <trkpt lat="52.14148" lon="10.93066">
        <ele>255.48</ele>
        <time>2026-09-03T00:19:36.8270000+00:00</time>
      </trkpt>
      <trkpt lat="52.14141" lon="10.92994">
        <ele>255.83</ele>
        <time>2026-09-03T00:19:58.7160000+00:00</time>
      </trkpt>
      <trkpt lat="52.14271" lon="10.92819">
        <ele>269.43</ele>
        <time>2026-09-03T00:21:21.2180000+00:00</time>
      </trkpt>
      <trkpt lat="52.14326" lon="10.92758">
        <ele>271.87</ele>
        <time>2026-09-03T00:21:53.7700000+00:00</time>
      </trkpt>
      <trkpt lat="52.14386" lon="10.92691">
        <ele>270.88</ele>
        <time>2026-09-03T00:22:29.3570000+00:00</time>
      </trkpt>
      <trkpt lat="52.14358" lon="10.92621">
        <ele>270.58</ele>
        <time>2026-09-03T00:22:54.4450000+00:00</time>
      </trkpt>
      <trkpt lat="52.1435" lon="10.92566">
        <ele>270.22</ele>
        <time>2026-09-03T00:23:11.4170000+00:00</time>
      </trkpt>
      <trkpt lat="52.14374" lon="10.92326">
        <ele>273.79</ele>
        <time>2026-09-03T00:24:24.4280000+00:00</time>
      </trkpt>
      <trkpt lat="52.1436" lon="10.91891">
        <ele>275.32</ele>
        <time>2026-09-03T00:26:35.2180000+00:00</time>
      </trkpt>
      <trkpt lat="52.14376" lon="10.9183">
        <ele>276.44</ele>
        <time>2026-09-03T00:26:55.1360000+00:00</time>
      </trkpt>
      <trkpt lat="52.14435" lon="10.91764">
        <ele>279.74</ele>
        <time>2026-09-03T00:27:30.1500000+00:00</time>
      </trkpt>
      <trkpt lat="52.14457" lon="10.9172">
        <ele>280.14</ele>
        <time>2026-09-03T00:27:47.1910000+00:00</time>
      </trkpt>
      <trkpt lat="52.14461" lon="10.91646">
        <ele>280.22</ele>
        <time>2026-09-03T00:28:09.4950000+00:00</time>
      </trkpt>
      <trkpt lat="52.14462" lon="10.91607">
        <ele>280.55</ele>
        <time>2026-09-03T00:28:21.2150000+00:00</time>
      </trkpt>
      <trkpt lat="52.14465" lon="10.91432">
        <ele>278.37</ele>
        <time>2026-09-03T00:29:13.7790000+00:00</time>
      </trkpt>
      <trkpt lat="52.14651" lon="10.91299">
        <ele>284.94</ele>
        <time>2026-09-03T00:30:53.1580000+00:00</time>
      </trkpt>
      <trkpt lat="52.14861" lon="10.91274">
        <ele>290.86</ele>
        <time>2026-09-03T00:32:36.1770000+00:00</time>
      </trkpt>
      <trkpt lat="52.14982" lon="10.91169">
        <ele>292.26</ele>
        <time>2026-09-03T00:33:43.2470000+00:00</time>
      </trkpt>
      <trkpt lat="52.15073" lon="10.91113">
        <ele>292.26</ele>
        <time>2026-09-03T00:34:30.8390000+00:00</time>
      </trkpt>
      <trkpt lat="52.15094" lon="10.9106">
        <ele>293.27</ele>
        <time>2026-09-03T00:34:49.7790000+00:00</time>
      </trkpt>
      <trkpt lat="52.15456" lon="10.9014">
        <ele>298.75</ele>
        <time>2026-09-03T00:40:17.8690000+00:00</time>
      </trkpt>
      <trkpt lat="52.15334" lon="10.89656">
        <ele>287.93</ele>
        <time>2026-09-03T00:42:54.9410000+00:00</time>
      </trkpt>
      <trkpt lat="52.15288" lon="10.89472">
        <ele>285.39</ele>
        <time>2026-09-03T00:43:54.5860000+00:00</time>
      </trkpt>
      <trkpt lat="52.15299" lon="10.8946">
        <ele>285.26</ele>
        <time>2026-09-03T00:44:01.0620000+00:00</time>
      </trkpt>
      <trkpt lat="52.15484" lon="10.88701">
        <ele>282.45</ele>
        <time>2026-09-03T00:48:06.2220000+00:00</time>
      </trkpt>
      <trkpt lat="52.15614" lon="10.88452">
        <ele>282.72</ele>
        <time>2026-09-03T00:49:44.3660000+00:00</time>
      </trkpt>
      <trkpt lat="52.15642" lon="10.881">
        <ele>276.66</ele>
        <time>2026-09-03T00:51:30.9090000+00:00</time>
      </trkpt>
      <trkpt lat="52.15957" lon="10.88208">
        <ele>273.96</ele>
        <time>2026-09-03T00:54:08.4000000+00:00</time>
      </trkpt>
      <trkpt lat="52.16059" lon="10.88244">
        <ele>272.61</ele>
        <time>2026-09-03T00:54:59.4610000+00:00</time>
      </trkpt>
      <trkpt lat="52.16534" lon="10.88233">
        <ele>266.81</ele>
        <time>2026-09-03T00:58:51.8850000+00:00</time>
      </trkpt>
      <trkpt lat="52.16513" lon="10.87901">
        <ele>261.52</ele>
        <time>2026-09-03T01:00:32.0500000+00:00</time>
      </trkpt>
      <trkpt lat="52.16521" lon="10.87774">
        <ele>258.2</ele>
        <time>2026-09-03T01:01:10.3640000+00:00</time>
      </trkpt>
      <trkpt lat="52.16629" lon="10.87316">
        <ele>254.57</ele>
        <time>2026-09-03T01:03:37.6190000+00:00</time>
      </trkpt>
      <trkpt lat="52.16682" lon="10.87152">
        <ele>249.28</ele>
        <time>2026-09-03T01:04:33.2490000+00:00</time>
      </trkpt>
      <trkpt lat="52.16701" lon="10.86937">
        <ele>240.26</ele>
        <time>2026-09-03T01:05:38.4360000+00:00</time>
      </trkpt>
      <trkpt lat="52.16714" lon="10.866">
        <ele>236.79</ele>
        <time>2026-09-03T01:07:19.7680000+00:00</time>
      </trkpt>
      <trkpt lat="52.1673" lon="10.86603">
        <ele>236.22</ele>
        <time>2026-09-03T01:07:27.6480000+00:00</time>
      </trkpt>
      <trkpt lat="52.16919" lon="10.86589">
        <ele>237.28</ele>
        <time>2026-09-03T01:09:00.2140000+00:00</time>
      </trkpt>
      <trkpt lat="52.17589" lon="10.86765">
        <ele>225.56</ele>
        <time>2026-09-03T01:14:32.2480000+00:00</time>
      </trkpt>
      <trkpt lat="52.17617" lon="10.86345">
        <ele>226.42</ele>
        <time>2026-09-03T01:16:39.0050000+00:00</time>
      </trkpt>
      <trkpt lat="52.17602" lon="10.86218">
        <ele>233.66</ele>
        <time>2026-09-03T01:17:17.8100000+00:00</time>
      </trkpt>
      <trkpt lat="52.17513" lon="10.86037">
        <ele>237.79</ele>
        <time>2026-09-03T01:18:27.4180000+00:00</time>
      </trkpt>
      <trkpt lat="52.17327" lon="10.85744">
        <ele>227.35</ele>
        <time>2026-09-03T01:20:33.9510000+00:00</time>
      </trkpt>
      <trkpt lat="52.1732" lon="10.85714">
        <ele>226.5</ele>
        <time>2026-09-03T01:20:43.5820000+00:00</time>
      </trkpt>
      <trkpt lat="52.17079" lon="10.85703">
        <ele>223.08</ele>
        <time>2026-09-03T01:22:41.5410000+00:00</time>
      </trkpt>
      <trkpt lat="52.17035" lon="10.85709">
        <ele>222.74</ele>
        <time>2026-09-03T01:23:03.1440000+00:00</time>
      </trkpt>
      <trkpt lat="52.16995" lon="10.852">
        <ele>225.66</ele>
        <time>2026-09-03T01:25:37.1310000+00:00</time>
      </trkpt>
      <trkpt lat="52.16949" lon="10.8503">
        <ele>224.23</ele>
        <time>2026-09-03T01:26:32.8880000+00:00</time>
      </trkpt>
      <trkpt lat="52.1704" lon="10.84587">
        <ele>225.79</ele>
        <time>2026-09-03T01:28:53.0800000+00:00</time>
      </trkpt>
      <trkpt lat="52.16915" lon="10.8421">
        <ele>231.73</ele>
        <time>2026-09-03T01:31:01.6820000+00:00</time>
      </trkpt>
      <trkpt lat="52.16764" lon="10.84071">
        <ele>221.39</ele>
        <time>2026-09-03T01:32:26.5230000+00:00</time>
      </trkpt>
      <trkpt lat="52.16924" lon="10.83802">
        <ele>219.9</ele>
        <time>2026-09-03T01:34:18.9700000+00:00</time>
      </trkpt>
      <trkpt lat="52.1712" lon="10.83571">
        <ele>215.49</ele>
        <time>2026-09-03T01:36:17.2950000+00:00</time>
      </trkpt>
      <trkpt lat="52.17154" lon="10.83484">
        <ele>209.5</ele>
        <time>2026-09-03T01:36:48.2510000+00:00</time>
      </trkpt>
      <trkpt lat="52.1697" lon="10.83372">
        <ele>207.24</ele>
        <time>2026-09-03T01:38:24.3440000+00:00</time>
      </trkpt>
      <trkpt lat="52.169" lon="10.83304">
        <ele>202.39</ele>
        <time>2026-09-03T01:39:04.2100000+00:00</time>
      </trkpt>
      <trkpt lat="52.1672" lon="10.82992">
        <ele>192.29</ele>
        <time>2026-09-03T01:41:12.7490000+00:00</time>
      </trkpt>
      <trkpt lat="52.16637" lon="10.827819999999999">
        <ele>190.89</ele>
        <time>2026-09-03T01:42:27.7200000+00:00</time>
      </trkpt>
      <trkpt lat="52.16574" lon="10.82688">
        <ele>183.3</ele>
        <time>2026-09-03T01:43:09.5030000+00:00</time>
      </trkpt>
      <trkpt lat="52.16525" lon="10.82615">
        <ele>177.53</ele>
        <time>2026-09-03T01:43:41.9800000+00:00</time>
      </trkpt>
      <trkpt lat="52.16569" lon="10.82442">
        <ele>186.52</ele>
        <time>2026-09-03T01:44:38.1840000+00:00</time>
      </trkpt>
      <trkpt lat="52.16689" lon="10.82201">
        <ele>198.39</ele>
        <time>2026-09-03T01:46:11.3390000+00:00</time>
      </trkpt>
      <trkpt lat="52.16713" lon="10.82116">
        <ele>195.26</ele>
        <time>2026-09-03T01:46:39.4210000+00:00</time>
      </trkpt>
      <trkpt lat="52.16742" lon="10.82059">
        <ele>195.57</ele>
        <time>2026-09-03T01:47:01.6450000+00:00</time>
      </trkpt>
      <trkpt lat="52.16778" lon="10.82068">
        <ele>201.59</ele>
        <time>2026-09-03T01:47:19.4640000+00:00</time>
      </trkpt>
      <trkpt lat="52.16944" lon="10.82183">
        <ele>214.56</ele>
        <time>2026-09-03T01:48:47.7100000+00:00</time>
      </trkpt>
      <trkpt lat="52.17331" lon="10.82339">
        <ele>226.02</ele>
        <time>2026-09-03T01:52:02.7550000+00:00</time>
      </trkpt>
      <trkpt lat="52.17571" lon="10.82315">
        <ele>230.29</ele>
        <time>2026-09-03T01:54:00.3990000+00:00</time>
      </trkpt>
      <trkpt lat="52.17578" lon="10.82117">
        <ele>234.2</ele>
        <time>2026-09-03T01:54:59.9050000+00:00</time>
      </trkpt>
      <trkpt lat="52.17559" lon="10.82022">
        <ele>233.07</ele>
        <time>2026-09-03T01:55:29.8870000+00:00</time>
      </trkpt>
      <trkpt lat="52.17558" lon="10.81917">
        <ele>231.51</ele>
        <time>2026-09-03T01:56:01.3940000+00:00</time>
      </trkpt>
      <trkpt lat="52.17512" lon="10.81807">
        <ele>230.61</ele>
        <time>2026-09-03T01:56:41.3420000+00:00</time>
      </trkpt>
      <trkpt lat="52.17537" lon="10.81768">
        <ele>232.42</ele>
        <time>2026-09-03T01:56:58.2700000+00:00</time>
      </trkpt>
      <trkpt lat="52.1782" lon="10.8089">
        <ele>245.04</ele>
        <time>2026-09-03T02:01:55.8690000+00:00</time>
      </trkpt>
      <trkpt lat="52.17941" lon="10.80879">
        <ele>252.14</ele>
        <time>2026-09-03T02:02:55.1620000+00:00</time>
      </trkpt>
      <trkpt lat="52.17989" lon="10.80904">
        <ele>254.96</ele>
        <time>2026-09-03T02:03:19.8150000+00:00</time>
      </trkpt>
      <trkpt lat="52.18184" lon="10.81078">
        <ele>255.67</ele>
        <time>2026-09-03T02:05:08.5680000+00:00</time>
      </trkpt>
      <trkpt lat="52.18245" lon="10.80859">
        <ele>251.5</ele>
        <time>2026-09-03T02:06:20.7280000+00:00</time>
      </trkpt>
      <trkpt lat="52.18272" lon="10.80843">
        <ele>253.68</ele>
        <time>2026-09-03T02:06:34.7830000+00:00</time>
      </trkpt>
      <trkpt lat="52.18753" lon="10.80939">
        <ele>272.6</ele>
        <time>2026-09-03T02:10:31.8750000+00:00</time>
      </trkpt>
      <trkpt lat="52.19062" lon="10.81023">
        <ele>282.62</ele>
        <time>2026-09-03T02:13:05.1430000+00:00</time>
      </trkpt>
      <trkpt lat="52.19725" lon="10.81091">
        <ele>289.17</ele>
        <time>2026-09-03T02:18:30.1660000+00:00</time>
      </trkpt>
      <trkpt lat="52.20301" lon="10.81241">
        <ele>290.76</ele>
        <time>2026-09-03T02:23:15.5490000+00:00</time>
      </trkpt>
      <trkpt lat="52.20644" lon="10.81352">
        <ele>286.85</ele>
        <time>2026-09-03T02:26:06.6350000+00:00</time>
      </trkpt>
      <trkpt lat="52.20664" lon="10.81429">
        <ele>281.41</ele>
        <time>2026-09-03T02:26:31.7100000+00:00</time>
      </trkpt>
      <trkpt lat="52.20683" lon="10.8143">
        <ele>279.08</ele>
        <time>2026-09-03T02:26:41.0110000+00:00</time>
      </trkpt>
      <trkpt lat="52.20732" lon="10.81608">
        <ele>272.23</ele>
        <time>2026-09-03T02:27:39.5170000+00:00</time>
      </trkpt>
      <trkpt lat="52.2086" lon="10.81499">
        <ele>266.65</ele>
        <time>2026-09-03T02:28:50.1570000+00:00</time>
      </trkpt>
      <trkpt lat="52.20877" lon="10.81483">
        <ele>267.17</ele>
        <time>2026-09-03T02:28:59.7590000+00:00</time>
      </trkpt>
      <trkpt lat="52.2092" lon="10.8143">
        <ele>271.59</ele>
        <time>2026-09-03T02:29:26.1240000+00:00</time>
      </trkpt>
      <trkpt lat="52.2094" lon="10.81343">
        <ele>277.69</ele>
        <time>2026-09-03T02:29:53.9830000+00:00</time>
      </trkpt>
      <trkpt lat="52.20938" lon="10.81291">
        <ele>279.97</ele>
        <time>2026-09-03T02:30:09.6030000+00:00</time>
      </trkpt>
      <trkpt lat="52.20849" lon="10.8089">
        <ele>292.44</ele>
        <time>2026-09-03T02:32:17.4710000+00:00</time>
      </trkpt>
      <trkpt lat="52.20816" lon="10.80815">
        <ele>294.59</ele>
        <time>2026-09-03T02:32:45.1540000+00:00</time>
      </trkpt>
      <trkpt lat="52.20744" lon="10.80715">
        <ele>293.25</ele>
        <time>2026-09-03T02:33:31.4130000+00:00</time>
      </trkpt>
      <trkpt lat="52.20669" lon="10.8057">
        <ele>286.15</ele>
        <time>2026-09-03T02:34:28.3030000+00:00</time>
      </trkpt>
      <trkpt lat="52.20659" lon="10.80547">
        <ele>284.53</ele>
        <time>2026-09-03T02:34:36.7590000+00:00</time>
      </trkpt>
      <trkpt lat="52.20692" lon="10.805">
        <ele>282.12</ele>
        <time>2026-09-03T02:34:58.1890000+00:00</time>
      </trkpt>
      <trkpt lat="52.2085" lon="10.80424">
        <ele>277.34</ele>
        <time>2026-09-03T02:36:18.7820000+00:00</time>
      </trkpt>
      <trkpt lat="52.2086" lon="10.80383">
        <ele>275.01</ele>
        <time>2026-09-03T02:36:32.0120000+00:00</time>
      </trkpt>
      <trkpt lat="52.20799" lon="10.80296">
        <ele>272.77</ele>
        <time>2026-09-03T02:37:11.6490000+00:00</time>
      </trkpt>
      <trkpt lat="52.20794" lon="10.80258">
        <ele>271.06</ele>
        <time>2026-09-03T02:37:23.3020000+00:00</time>
      </trkpt>
      <trkpt lat="52.20845" lon="10.79974">
        <ele>277.02</ele>
        <time>2026-09-03T02:38:52.0310000+00:00</time>
      </trkpt>
      <trkpt lat="52.20869" lon="10.79752">
        <ele>284.06</ele>
        <time>2026-09-03T02:39:59.6180000+00:00</time>
      </trkpt>
      <trkpt lat="52.20958" lon="10.79488">
        <ele>292.67</ele>
        <time>2026-09-03T02:41:29.9560000+00:00</time>
      </trkpt>
      <trkpt lat="52.21001" lon="10.79307">
        <ele>294</ele>
        <time>2026-09-03T02:42:28.1570000+00:00</time>
      </trkpt>
      <trkpt lat="52.21014" lon="10.79221">
        <ele>293.79</ele>
        <time>2026-09-03T02:42:54.7130000+00:00</time>
      </trkpt>
      <trkpt lat="52.21013" lon="10.7906">
        <ele>293.9</ele>
        <time>2026-09-03T02:43:42.9840000+00:00</time>
      </trkpt>
      <trkpt lat="52.21034" lon="10.78983">
        <ele>293.82</ele>
        <time>2026-09-03T02:44:08.2520000+00:00</time>
      </trkpt>
      <trkpt lat="52.21128" lon="10.78754">
        <ele>293.97</ele>
        <time>2026-09-03T02:45:30.8870000+00:00</time>
      </trkpt>
      <trkpt lat="52.2116" lon="10.78702">
        <ele>294</ele>
        <time>2026-09-03T02:45:52.9820000+00:00</time>
      </trkpt>
      <trkpt lat="52.21282" lon="10.78575">
        <ele>293.15</ele>
        <time>2026-09-03T02:47:03.7810000+00:00</time>
      </trkpt>
      <trkpt lat="52.21348" lon="10.7845">
        <ele>294.04</ele>
        <time>2026-09-03T02:47:53.2480000+00:00</time>
      </trkpt>
      <trkpt lat="52.21395" lon="10.78295">
        <ele>297.88</ele>
        <time>2026-09-03T02:48:45.0920000+00:00</time>
      </trkpt>
      <trkpt lat="52.2163" lon="10.78139">
        <ele>312.6</ele>
        <time>2026-09-03T02:50:49.2160000+00:00</time>
      </trkpt>
      <trkpt lat="52.21775" lon="10.78095">
        <ele>314.71</ele>
        <time>2026-09-03T02:52:01.3750000+00:00</time>
      </trkpt>
      <trkpt lat="52.21821" lon="10.78092">
        <ele>316.07</ele>
        <time>2026-09-03T02:52:23.8990000+00:00</time>
      </trkpt>
      <trkpt lat="52.21904" lon="10.78142">
        <ele>313.58</ele>
        <time>2026-09-03T02:53:07.1850000+00:00</time>
      </trkpt>
      <trkpt lat="52.2211" lon="10.78444">
        <ele>309.95</ele>
        <time>2026-09-03T02:55:22.6560000+00:00</time>
      </trkpt>
      <trkpt lat="52.22361" lon="10.78774">
        <ele>291.47</ele>
        <time>2026-09-03T02:58:00.3400000+00:00</time>
      </trkpt>
      <trkpt lat="52.22458" lon="10.78948">
        <ele>281.35</ele>
        <time>2026-09-03T02:59:10.8510000+00:00</time>
      </trkpt>
      <trkpt lat="52.2257" lon="10.78975">
        <ele>273.44</ele>
        <time>2026-09-03T03:00:06.2430000+00:00</time>
      </trkpt>
      <trkpt lat="52.22583" lon="10.79068">
        <ele>270.82</ele>
        <time>2026-09-03T03:00:34.8320000+00:00</time>
      </trkpt>
      <trkpt lat="52.22824" lon="10.79521">
        <ele>249.59</ele>
        <time>2026-09-03T03:03:34.6490000+00:00</time>
      </trkpt>
      <trkpt lat="52.22863" lon="10.79595">
        <ele>245.78</ele>
        <time>2026-09-03T03:04:03.9050000+00:00</time>
      </trkpt>
      <trkpt lat="52.22888" lon="10.79641">
        <ele>244.61</ele>
        <time>2026-09-03T03:04:22.3340000+00:00</time>
      </trkpt>
      <trkpt lat="52.23009" lon="10.79871">
        <ele>233.05</ele>
        <time>2026-09-03T03:05:53.1940000+00:00</time>
      </trkpt>
      <trkpt lat="52.23228" lon="10.80227">
        <ele>201.05</ele>
        <time>2026-09-03T03:08:24.3940000+00:00</time>
      </trkpt>
      <trkpt lat="52.23226" lon="10.80269">
        <ele>198.35</ele>
        <time>2026-09-03T03:08:37.0170000+00:00</time>
      </trkpt>
      <trkpt lat="52.23179" lon="10.80401">
        <ele>195.54</ele>
        <time>2026-09-03T03:09:22.7710000+00:00</time>
      </trkpt>
      <trkpt lat="52.23182" lon="10.8045">
        <ele>192.7</ele>
        <time>2026-09-03T03:09:37.5270000+00:00</time>
      </trkpt>
      <trkpt lat="52.23329" lon="10.80562">
        <ele>185.77</ele>
        <time>2026-09-03T03:10:56.8940000+00:00</time>
      </trkpt>
      <trkpt lat="52.23337" lon="10.80587">
        <ele>186.84</ele>
        <time>2026-09-03T03:11:05.3460000+00:00</time>
      </trkpt>
      <trkpt lat="52.23398" lon="10.80603">
        <ele>182.54</ele>
        <time>2026-09-03T03:11:35.5740000+00:00</time>
      </trkpt>
      <trkpt lat="52.23468" lon="10.8065">
        <ele>181.38</ele>
        <time>2026-09-03T03:12:12.6050000+00:00</time>
      </trkpt>
      <trkpt lat="52.23482" lon="10.80685">
        <ele>184.05</ele>
        <time>2026-09-03T03:12:25.1310000+00:00</time>
      </trkpt>
      <trkpt lat="52.2358" lon="10.80752">
        <ele>178.78</ele>
        <time>2026-09-03T03:13:17.1120000+00:00</time>
      </trkpt>
      <trkpt lat="52.23587" lon="10.80756">
        <ele>178.53</ele>
        <time>2026-09-03T03:13:20.7410000+00:00</time>
      </trkpt>
      <trkpt lat="52.23602" lon="10.80739">
        <ele>177</ele>
        <time>2026-09-03T03:13:29.6740000+00:00</time>
      </trkpt>
      <trkpt lat="52.2366" lon="10.80704">
        <ele>175.8</ele>
        <time>2026-09-03T03:13:59.9270000+00:00</time>
      </trkpt>
      <trkpt lat="52.23727" lon="10.80704">
        <ele>173.56</ele>
        <time>2026-09-03T03:14:32.7080000+00:00</time>
      </trkpt>
      <trkpt lat="52.23761" lon="10.80707">
        <ele>174</ele>
        <time>2026-09-03T03:14:49.3670000+00:00</time>
      </trkpt>
      <trkpt lat="52.23808" lon="10.80746">
        <ele>172.89</ele>
        <time>2026-09-03T03:15:15.1610000+00:00</time>
      </trkpt>
      <trkpt lat="52.2393" lon="10.80888">
        <ele>171.29</ele>
        <time>2026-09-03T03:16:28.4620000+00:00</time>
      </trkpt>
      <trkpt lat="52.2419" lon="10.81272">
        <ele>164.3</ele>
        <time>2026-09-03T03:19:19.9780000+00:00</time>
      </trkpt>
      <trkpt lat="52.24301" lon="10.81328">
        <ele>161.51</ele>
        <time>2026-09-03T03:20:16.8190000+00:00</time>
      </trkpt>
      <trkpt lat="52.24374" lon="10.81346">
        <ele>160.07</ele>
        <time>2026-09-03T03:20:52.9400000+00:00</time>
      </trkpt>
      <trkpt lat="52.24501" lon="10.81288">
        <ele>151.39</ele>
        <time>2026-09-03T03:21:57.4600000+00:00</time>
      </trkpt>
      <trkpt lat="52.24496" lon="10.81486">
        <ele>157.36</ele>
        <time>2026-09-03T03:22:56.8250000+00:00</time>
      </trkpt>
      <trkpt lat="52.24496" lon="10.81526">
        <ele>158.3</ele>
        <time>2026-09-03T03:23:08.8080000+00:00</time>
      </trkpt>
      <trkpt lat="52.24502" lon="10.81532">
        <ele>157.65</ele>
        <time>2026-09-03T03:23:12.2500000+00:00</time>
      </trkpt>
      <trkpt lat="52.24515" lon="10.81607">
        <ele>155.33</ele>
        <time>2026-09-03T03:23:35.6010000+00:00</time>
      </trkpt>
      <trkpt lat="52.24506" lon="10.81654">
        <ele>154.44</ele>
        <time>2026-09-03T03:23:50.3530000+00:00</time>
      </trkpt>
      <trkpt lat="52.24501" lon="10.81665">
        <ele>154.37</ele>
        <time>2026-09-03T03:23:54.4570000+00:00</time>
      </trkpt>
      <trkpt lat="52.24488" lon="10.81815">
        <ele>152.14</ele>
        <time>2026-09-03T03:24:39.8400000+00:00</time>
      </trkpt>
      <trkpt lat="52.2446" lon="10.8184">
        <ele>152.6</ele>
        <time>2026-09-03T03:24:55.4530000+00:00</time>
      </trkpt>
      <trkpt lat="52.24465" lon="10.8188">
        <ele>151.66</ele>
        <time>2026-09-03T03:25:07.6830000+00:00</time>
      </trkpt>
      <trkpt lat="52.24448" lon="10.81997">
        <ele>149.57</ele>
        <time>2026-09-03T03:25:43.7070000+00:00</time>
      </trkpt>
      <trkpt lat="52.2438" lon="10.8224">
        <ele>147.38</ele>
        <time>2026-09-03T03:27:03.7460000+00:00</time>
      </trkpt>
      <trkpt lat="52.24365" lon="10.82379">
        <ele>144.62</ele>
        <time>2026-09-03T03:27:46.0290000+00:00</time>
      </trkpt>
      <trkpt lat="52.24371" lon="10.82419">
        <ele>143.8</ele>
        <time>2026-09-03T03:27:58.3670000+00:00</time>
      </trkpt>
      <trkpt lat="52.24328" lon="10.82516">
        <ele>142.59</ele>
        <time>2026-09-03T03:28:34.2420000+00:00</time>
      </trkpt>
      <trkpt lat="52.24263" lon="10.82717">
        <ele>140.49</ele>
        <time>2026-09-03T03:29:42.3400000+00:00</time>
      </trkpt>
      <trkpt lat="52.24205" lon="10.82826">
        <ele>141.31</ele>
        <time>2026-09-03T03:30:25.6030000+00:00</time>
      </trkpt>
      <trkpt lat="52.24079" lon="10.82967">
        <ele>145.27</ele>
        <time>2026-09-03T03:31:40.3350000+00:00</time>
      </trkpt>
      <trkpt lat="52.24034" lon="10.83034">
        <ele>147.06</ele>
        <time>2026-09-03T03:32:10.1280000+00:00</time>
      </trkpt>
      <trkpt lat="52.23902" lon="10.83331">
        <ele>150.63</ele>
        <time>2026-09-03T03:34:00.0780000+00:00</time>
      </trkpt>
      <trkpt lat="52.23832" lon="10.83454">
        <ele>152.43</ele>
        <time>2026-09-03T03:34:50.3880000+00:00</time>
      </trkpt>
      <trkpt lat="52.23708" lon="10.8378">
        <ele>147.51</ele>
        <time>2026-09-03T03:36:45.3710000+00:00</time>
      </trkpt>
      <trkpt lat="52.23509" lon="10.84086">
        <ele>145.52</ele>
        <time>2026-09-03T03:38:59.1100000+00:00</time>
      </trkpt>
      <trkpt lat="52.23462" lon="10.84219">
        <ele>145.05</ele>
        <time>2026-09-03T03:39:45.1210000+00:00</time>
      </trkpt>
      <trkpt lat="52.23411" lon="10.84558">
        <ele>140.16</ele>
        <time>2026-09-03T03:41:29.7190000+00:00</time>
      </trkpt>
      <trkpt lat="52.23366" lon="10.84724">
        <ele>137.68</ele>
        <time>2026-09-03T03:42:24.1150000+00:00</time>
      </trkpt>
      <trkpt lat="52.23155" lon="10.85191">
        <ele>132.36</ele>
        <time>2026-09-03T03:45:18.0120000+00:00</time>
      </trkpt>
      <trkpt lat="52.23138" lon="10.85212">
        <ele>132.48</ele>
        <time>2026-09-03T03:45:28.4420000+00:00</time>
      </trkpt>
      <trkpt lat="52.23072" lon="10.85203">
        <ele>134.5</ele>
        <time>2026-09-03T03:46:00.8460000+00:00</time>
      </trkpt>
      <trkpt lat="52.22199" lon="10.85398">
        <ele>146.53</ele>
        <time>2026-09-03T03:53:11.9530000+00:00</time>
      </trkpt>
      <trkpt lat="52.2219" lon="10.85416">
        <ele>146.57</ele>
        <time>2026-09-03T03:53:18.9170000+00:00</time>
      </trkpt>
      <trkpt lat="52.2216" lon="10.85423">
        <ele>146.92</ele>
        <time>2026-09-03T03:53:33.7440000+00:00</time>
      </trkpt>
      <trkpt lat="52.22196" lon="10.85069">
        <ele>157.72</ele>
        <time>2026-09-03T03:55:21.2990000+00:00</time>
      </trkpt>
      <trkpt lat="52.22029" lon="10.85006">
        <ele>159.28</ele>
        <time>2026-09-03T03:56:45.1600000+00:00</time>
      </trkpt>
      <trkpt lat="52.21941" lon="10.85079">
        <ele>156.4</ele>
        <time>2026-09-03T03:57:33.4560000+00:00</time>
      </trkpt>
      <trkpt lat="52.21789" lon="10.85307">
        <ele>152.61</ele>
        <time>2026-09-03T03:59:14.4580000+00:00</time>
      </trkpt>
      <trkpt lat="52.21793" lon="10.85378">
        <ele>150.56</ele>
        <time>2026-09-03T03:59:35.8300000+00:00</time>
      </trkpt>
      <trkpt lat="52.216" lon="10.85372">
        <ele>149.08</ele>
        <time>2026-09-03T04:01:10.2750000+00:00</time>
      </trkpt>
      <trkpt lat="52.20522" lon="10.86052">
        <ele>152.05</ele>
        <time>2026-09-03T04:10:35.7310000+00:00</time>
      </trkpt>
      <trkpt lat="52.20504" lon="10.85992">
        <ele>153.4</ele>
        <time>2026-09-03T04:10:55.7610000+00:00</time>
      </trkpt>
      <trkpt lat="52.20237" lon="10.86158">
        <ele>153.25</ele>
        <time>2026-09-03T04:13:15.5570000+00:00</time>
      </trkpt>
      <trkpt lat="52.20247" lon="10.86197">
        <ele>152.7</ele>
        <time>2026-09-03T04:13:28.2330000+00:00</time>
      </trkpt>
      <trkpt lat="52.1948" lon="10.86684">
        <ele>162.9</ele>
        <time>2026-09-03T04:20:10.9150000+00:00</time>
      </trkpt>
      <trkpt lat="52.19494" lon="10.8673">
        <ele>161.75</ele>
        <time>2026-09-03T04:20:26.3180000+00:00</time>
      </trkpt>
      <trkpt lat="52.1947" lon="10.86797">
        <ele>160.4</ele>
        <time>2026-09-03T04:20:49.5910000+00:00</time>
      </trkpt>
      <trkpt lat="52.1946" lon="10.86795">
        <ele>160.64</ele>
        <time>2026-09-03T04:20:54.5200000+00:00</time>
      </trkpt>
      <trkpt lat="52.19456" lon="10.86795">
        <ele>160.71</ele>
        <time>2026-09-03T04:20:56.4770000+00:00</time>
      </trkpt>
      <trkpt lat="52.19452" lon="10.86791">
        <ele>160.91</ele>
        <time>2026-09-03T04:20:58.7730000+00:00</time>
      </trkpt>
      <trkpt lat="52.19314" lon="10.86603">
        <ele>163.8</ele>
        <time>2026-09-03T04:22:26.7380000+00:00</time>
      </trkpt>
      <trkpt lat="52.19308" lon="10.86591">
        <ele>164</ele>
        <time>2026-09-03T04:22:31.3830000+00:00</time>
      </trkpt>
      <trkpt lat="52.19308" lon="10.86584">
        <ele>164.01</ele>
        <time>2026-09-03T04:22:33.4820000+00:00</time>
      </trkpt>
      <trkpt lat="52.19264" lon="10.86619">
        <ele>163.41</ele>
        <time>2026-09-03T04:22:57.4330000+00:00</time>
      </trkpt>
      <trkpt lat="52.19231" lon="10.86586">
        <ele>164.1</ele>
        <time>2026-09-03T04:23:16.3710000+00:00</time>
      </trkpt>
      <trkpt lat="52.19137" lon="10.86446">
        <ele>165.82</ele>
        <time>2026-09-03T04:24:18.6470000+00:00</time>
      </trkpt>
      <trkpt lat="52.19085" lon="10.86322">
        <ele>167.12</ele>
        <time>2026-09-03T04:25:03.7080000+00:00</time>
      </trkpt>
      <trkpt lat="52.19027" lon="10.86116">
        <ele>171.34</ele>
        <time>2026-09-03T04:26:11.7000000+00:00</time>
      </trkpt>
      <trkpt lat="52.18942" lon="10.85983">
        <ele>173.35</ele>
        <time>2026-09-03T04:27:09.3280000+00:00</time>
      </trkpt>
      <trkpt lat="52.18906" lon="10.85954">
        <ele>174.17</ele>
        <time>2026-09-03T04:27:28.9720000+00:00</time>
      </trkpt>
      <trkpt lat="52.18826" lon="10.85838">
        <ele>178.37</ele>
        <time>2026-09-03T04:28:21.3420000+00:00</time>
      </trkpt>
      <trkpt lat="52.18782" lon="10.85678">
        <ele>177.87</ele>
        <time>2026-09-03T04:29:13.9420000+00:00</time>
      </trkpt>
      <trkpt lat="52.1876" lon="10.85644">
        <ele>179.06</ele>
        <time>2026-09-03T04:29:28.7700000+00:00</time>
      </trkpt>
      <trkpt lat="52.18746" lon="10.85647">
        <ele>179.21</ele>
        <time>2026-09-03T04:29:35.6790000+00:00</time>
      </trkpt>
      <trkpt lat="52.18706" lon="10.8559">
        <ele>180.7</ele>
        <time>2026-09-03T04:30:01.6660000+00:00</time>
      </trkpt>
      <trkpt lat="52.18674" lon="10.85576">
        <ele>181.95</ele>
        <time>2026-09-03T04:30:17.8760000+00:00</time>
      </trkpt>
      <trkpt lat="52.18618" lon="10.85506">
        <ele>185.22</ele>
        <time>2026-09-03T04:30:52.3950000+00:00</time>
      </trkpt>
      <trkpt lat="52.18501" lon="10.85685">
        <ele>193.85</ele>
        <time>2026-09-03T04:32:10.8810000+00:00</time>
      </trkpt>
      <trkpt lat="52.18412" lon="10.85746">
        <ele>200.58</ele>
        <time>2026-09-03T04:32:58.1140000+00:00</time>
      </trkpt>
      <trkpt lat="52.18364" lon="10.85807">
        <ele>202.74</ele>
        <time>2026-09-03T04:33:27.8860000+00:00</time>
      </trkpt>
      <trkpt lat="52.18306" lon="10.85828">
        <ele>204.26</ele>
        <time>2026-09-03T04:33:56.9550000+00:00</time>
      </trkpt>
      <trkpt lat="52.18254" lon="10.85845">
        <ele>206.31</ele>
        <time>2026-09-03T04:34:22.9020000+00:00</time>
      </trkpt>
      <trkpt lat="52.18188" lon="10.85822">
        <ele>209.81</ele>
        <time>2026-09-03T04:34:55.9230000+00:00</time>
      </trkpt>
      <trkpt lat="52.18178" lon="10.85913">
        <ele>210.67</ele>
        <time>2026-09-03T04:35:23.6570000+00:00</time>
      </trkpt>
      <trkpt lat="52.18166" lon="10.86474">
        <ele>209.27</ele>
        <time>2026-09-03T04:38:12.0580000+00:00</time>
      </trkpt>
      <trkpt lat="52.18107" lon="10.86723">
        <ele>208.59</ele>
        <time>2026-09-03T04:39:32.1410000+00:00</time>
      </trkpt>
      <trkpt lat="52.1799" lon="10.8806">
        <ele>202.04</ele>
        <time>2026-09-03T04:46:17.3130000+00:00</time>
      </trkpt>
      <trkpt lat="52.17986" lon="10.88153">
        <ele>201.92</ele>
        <time>2026-09-03T04:46:45.2820000+00:00</time>
      </trkpt>
      <trkpt lat="52.18029" lon="10.88524">
        <ele>198.52</ele>
        <time>2026-09-03T04:48:38.5560000+00:00</time>
      </trkpt>
      <trkpt lat="52.17843" lon="10.88495">
        <ele>210.9</ele>
        <time>2026-09-03T04:50:09.9740000+00:00</time>
      </trkpt>
      <trkpt lat="52.17558" lon="10.89163">
        <ele>213.59</ele>
        <time>2026-09-03T04:54:14.1290000+00:00</time>
      </trkpt>
      <trkpt lat="52.17341" lon="10.89277">
        <ele>224.56</ele>
        <time>2026-09-03T04:56:05.6730000+00:00</time>
      </trkpt>
      <trkpt lat="52.17161" lon="10.89456">
        <ele>229.18</ele>
        <time>2026-09-03T04:57:48.8270000+00:00</time>
      </trkpt>
      <trkpt lat="52.17032" lon="10.89492">
        <ele>235.1</ele>
        <time>2026-09-03T04:58:52.8600000+00:00</time>
      </trkpt>
      <trkpt lat="52.16994" lon="10.89556">
        <ele>236.61</ele>
        <time>2026-09-03T04:59:19.5900000+00:00</time>
      </trkpt>
      <trkpt lat="52.16931" lon="10.89755">
        <ele>236.76</ele>
        <time>2026-09-03T05:00:26.7910000+00:00</time>
      </trkpt>
      <trkpt lat="52.16864" lon="10.89921">
        <ele>237.44</ele>
        <time>2026-09-03T05:01:26.4230000+00:00</time>
      </trkpt>
      <trkpt lat="52.16843" lon="10.89946">
        <ele>238.26</ele>
        <time>2026-09-03T05:01:39.1450000+00:00</time>
      </trkpt>
      <trkpt lat="52.16869" lon="10.89992">
        <ele>237.05</ele>
        <time>2026-09-03T05:01:57.9170000+00:00</time>
      </trkpt>
      <trkpt lat="52.16887" lon="10.90088">
        <ele>236.53</ele>
        <time>2026-09-03T05:02:28.0410000+00:00</time>
      </trkpt>
      <trkpt lat="52.1696" lon="10.90128">
        <ele>235.61</ele>
        <time>2026-09-03T05:03:05.7200000+00:00</time>
      </trkpt>
      <trkpt lat="52.1702" lon="10.90191">
        <ele>234.24</ele>
        <time>2026-09-03T05:03:40.6370000+00:00</time>
      </trkpt>
      <trkpt lat="52.17063" lon="10.90206">
        <ele>232.27</ele>
        <time>2026-09-03T05:04:02.1510000+00:00</time>
      </trkpt>
      <trkpt lat="52.17078" lon="10.90212">
        <ele>230.93</ele>
        <time>2026-09-03T05:04:09.7080000+00:00</time>
      </trkpt>
      <trkpt lat="52.1716" lon="10.90334">
        <ele>222.35</ele>
        <time>2026-09-03T05:05:04.0190000+00:00</time>
      </trkpt>
      <trkpt lat="52.17165" lon="10.90397">
        <ele>221.52</ele>
        <time>2026-09-03T05:05:23.0810000+00:00</time>
      </trkpt>
      <trkpt lat="52.17098" lon="10.9072">
        <ele>222.62</ele>
        <time>2026-09-03T05:07:05.3960000+00:00</time>
      </trkpt>
      <trkpt lat="52.16993" lon="10.9107">
        <ele>223.73</ele>
        <time>2026-09-03T05:09:02.3130000+00:00</time>
      </trkpt>
      <trkpt lat="52.16957" lon="10.9115">
        <ele>223.15</ele>
        <time>2026-09-03T05:09:32.0880000+00:00</time>
      </trkpt>
      <trkpt lat="52.1632" lon="10.9031">
        <ele>273.63</ele>
        <time>2026-09-03T05:16:12.9360000+00:00</time>
      </trkpt>
      <trkpt lat="52.16308" lon="10.90301">
        <ele>273.45</ele>
        <time>2026-09-03T05:16:19.3980000+00:00</time>
      </trkpt>
      <trkpt lat="52.16266" lon="10.90704">
        <ele>268.49</ele>
        <time>2026-09-03T05:18:22.0820000+00:00</time>
      </trkpt>
      <trkpt lat="52.1625" lon="10.90778">
        <ele>268.25</ele>
        <time>2026-09-03T05:18:45.6300000+00:00</time>
      </trkpt>
      <trkpt lat="52.16205" lon="10.90878">
        <ele>267.97</ele>
        <time>2026-09-03T05:19:22.8530000+00:00</time>
      </trkpt>
      <trkpt lat="52.16097" lon="10.91016">
        <ele>269.3</ele>
        <time>2026-09-03T05:20:29.9910000+00:00</time>
      </trkpt>
      <trkpt lat="52.16175" lon="10.91136">
        <ele>268.64</ele>
        <time>2026-09-03T05:21:22.4660000+00:00</time>
      </trkpt>
      <trkpt lat="52.16135" lon="10.91184">
        <ele>267.87</ele>
        <time>2026-09-03T05:21:46.7670000+00:00</time>
      </trkpt>
      <trkpt lat="52.16116" lon="10.91288">
        <ele>268.56</ele>
        <time>2026-09-03T05:22:19.3360000+00:00</time>
      </trkpt>
      <trkpt lat="52.15612" lon="10.9228">
        <ele>281.65</ele>
        <time>2026-09-03T05:28:45.9390000+00:00</time>
      </trkpt>
      <trkpt lat="52.1559" lon="10.92305">
        <ele>281.94</ele>
        <time>2026-09-03T05:28:59.0600000+00:00</time>
      </trkpt>
      <trkpt lat="52.15516" lon="10.92334">
        <ele>279.08</ele>
        <time>2026-09-03T05:29:36.2980000+00:00</time>
      </trkpt>
      <trkpt lat="52.15364" lon="10.92772">
        <ele>273.48</ele>
        <time>2026-09-03T05:32:07.3520000+00:00</time>
      </trkpt>
      <trkpt lat="52.15461" lon="10.93037">
        <ele>265.68</ele>
        <time>2026-09-03T05:33:39.9820000+00:00</time>
      </trkpt>
      <trkpt lat="52.15463" lon="10.93042">
        <ele>265.57</ele>
        <time>2026-09-03T05:33:41.7740000+00:00</time>
      </trkpt>
      <trkpt lat="52.15493" lon="10.93136">
        <ele>263.1</ele>
        <time>2026-09-03T05:34:13.5800000+00:00</time>
      </trkpt>
      <trkpt lat="52.15569" lon="10.9335">
        <ele>253.55</ele>
        <time>2026-09-03T05:35:27.8030000+00:00</time>
      </trkpt>
      <trkpt lat="52.15615" lon="10.9349">
        <ele>246.7</ele>
        <time>2026-09-03T05:36:15.4750000+00:00</time>
      </trkpt>
      <trkpt lat="52.15597" lon="10.93522">
        <ele>245.18</ele>
        <time>2026-09-03T05:36:28.5060000+00:00</time>
      </trkpt>
      <trkpt lat="52.1549" lon="10.93756">
        <ele>240.89</ele>
        <time>2026-09-03T05:37:56.1100000+00:00</time>
      </trkpt>
      <trkpt lat="52.15366" lon="10.93921">
        <ele>244.93</ele>
        <time>2026-09-03T05:39:14.4290000+00:00</time>
      </trkpt>
      <trkpt lat="52.1496" lon="10.94911">
        <ele>193.98</ele>
        <time>2026-09-03T05:45:11.9000000+00:00</time>
      </trkpt>
      <trkpt lat="52.14811" lon="10.9503">
        <ele>186.43</ele>
        <time>2026-09-03T05:46:33.0830000+00:00</time>
      </trkpt>
      <trkpt lat="52.14554" lon="10.95062">
        <ele>192.21</ele>
        <time>2026-09-03T05:48:39.1910000+00:00</time>
      </trkpt>
      <trkpt lat="52.14562" lon="10.95358">
        <ele>179.94</ele>
        <time>2026-09-03T05:50:08.1480000+00:00</time>
      </trkpt>
      <trkpt lat="52.14543" lon="10.95548">
        <ele>173.72</ele>
        <time>2026-09-03T05:51:05.9470000+00:00</time>
      </trkpt>
      <trkpt lat="52.14385" lon="10.95578">
        <ele>175.59</ele>
        <time>2026-09-03T05:52:23.7730000+00:00</time>
      </trkpt>
      <trkpt lat="52.14383" lon="10.95694">
        <ele>170.93</ele>
        <time>2026-09-03T05:52:58.6160000+00:00</time>
      </trkpt>
      <trkpt lat="52.14365" lon="10.9572">
        <ele>170.64</ele>
        <time>2026-09-03T05:53:10.3850000+00:00</time>
      </trkpt>
      <trkpt lat="52.14357" lon="10.95812">
        <ele>167.21</ele>
        <time>2026-09-03T05:53:38.2840000+00:00</time>
      </trkpt>
      <trkpt lat="52.14229" lon="10.95825">
        <ele>167.74</ele>
        <time>2026-09-03T05:54:41.0320000+00:00</time>
      </trkpt>
      <trkpt lat="52.14259" lon="10.96334">
        <ele>148.63</ele>
        <time>2026-09-03T05:57:14.5680000+00:00</time>
      </trkpt>
      <trkpt lat="52.14236" lon="10.96364">
        <ele>147.96</ele>
        <time>2026-09-03T05:57:28.9820000+00:00</time>
      </trkpt>
      <trkpt lat="52.14165" lon="10.96394">
        <ele>144.83</ele>
        <time>2026-09-03T05:58:04.8690000+00:00</time>
      </trkpt>
      <trkpt lat="52.1412" lon="10.96377">
        <ele>145.54</ele>
        <time>2026-09-03T05:58:27.4700000+00:00</time>
      </trkpt>
      <trkpt lat="52.14087" lon="10.96411">
        <ele>144.81</ele>
        <time>2026-09-03T05:58:46.5730000+00:00</time>
      </trkpt>
      <trkpt lat="52.14065" lon="10.96408">
        <ele>145</ele>
        <time>2026-09-03T05:58:57.3740000+00:00</time>
      </trkpt>
      <trkpt lat="52.14053" lon="10.96507">
        <ele>141.32</ele>
        <time>2026-09-03T05:59:27.6760000+00:00</time>
      </trkpt>
      <trkpt lat="52.14048" lon="10.96534">
        <ele>139.67</ele>
        <time>2026-09-03T05:59:36.1440000+00:00</time>
      </trkpt>
      <trkpt lat="52.14032" lon="10.96529">
        <ele>139.63</ele>
        <time>2026-09-03T05:59:44.1150000+00:00</time>
      </trkpt>
      <trkpt lat="52.14001" lon="10.96522">
        <ele>139.35</ele>
        <time>2026-09-03T05:59:59.4270000+00:00</time>
      </trkpt>
      <trkpt lat="52.14" lon="10.96521">
        <ele>139.38</ele>
        <time>2026-09-03T06:00:00.0000000+00:00</time>
      </trkpt>
    </trkseg>
  </trk>
</gpx>